Terminal Aerodrome Forecast
Issued by NWS Cleveland, OH

Home | Current Version | Previous Version | Graphics & Text | Print | Product List | Glossary Off
Versions: 1 2 3 4 5 6 7 8 9 10 11 12 13 14 15 16 17 18 19 20 21 22 23 24 25 26 27 28 29 30 31

000
FTUS41 KCLE 300800 AAB
TAFCLE
TAF AMD
KCLE 300859Z 3009/3112 27014G20KT P6SM OVC045
     FM301200 25014G20KT P6SM SCT045 BKN250
     FM301600 26015G25KT P6SM SCT250
     FM302200 25014G22KT P6SM SCT120 BKN250
     FM310200 22007KT P6SM OVC120=

USA.gov is the U.S. government's official web portal to all federal, state and local government web resources and services.